Shawbury (EGOS)

METAR

EGOS 190550Z 34006KT 3500 BR BKN004 OVC012 13/12 Q1008 YLO2

QNH
1008
TEMP
13 °C
TAF

TAF EGOS 180646Z 1718/1823 CNL